createdAt,value
2022-08-29T00:00:18.238Z,101811.06
2022-08-29T00:02:48.469Z,101790.78
2022-08-29T00:05:18.810Z,101806.66
2022-08-29T00:07:47.299Z,101817.25
2022-08-29T00:10:16.268Z,101819.03
2022-08-29T00:12:45.199Z,101806.59
2022-08-29T00:15:14.383Z,101798.81
2022-08-29T00:17:42.754Z,101801.53
2022-08-29T00:20:13.504Z,101823.50
2022-08-29T00:22:43.426Z,101819.16
2022-08-29T00:25:14.035Z,101806.88
2022-08-29T00:27:42.489Z,101822.75
2022-08-29T00:30:17.827Z,101831.63
2022-08-29T00:32:46.207Z,101836.94
2022-08-29T00:35:16.884Z,101831.66
2022-08-29T00:37:47.187Z,101840.56
2022-08-29T00:40:19.302Z,101839.72
2022-08-29T00:42:47.864Z,101844.97
2022-08-29T00:45:18.192Z,101831.75
2022-08-29T00:47:50.233Z,101846.72
2022-08-29T00:50:27.012Z,101848.50
2022-08-29T00:52:58.402Z,101851.25
2022-08-29T00:55:31.581Z,101838.94
2022-08-29T00:58:05.107Z,101840.75
2022-08-29T01:00:34.444Z,101860.16
2022-08-29T01:03:02.927Z,101856.47
2022-08-29T01:05:31.041Z,101877.72
2022-08-29T01:08:01.110Z,101870.69
2022-08-29T01:10:47.038Z,101868.97
2022-08-29T01:13:15.724Z,101863.69
2022-08-29T01:15:46.616Z,101868.97
2022-08-29T01:18:17.339Z,101863.69
2022-08-29T01:20:57.736Z,101864.66
2022-08-29T01:23:33.992Z,101863.78
2022-08-29T01:26:05.034Z,101872.56
2022-08-29T01:28:37.960Z,101876.09
2022-08-29T01:31:09.372Z,101883.09
2022-08-29T01:33:44.124Z,101878.78
2022-08-29T01:36:15.534Z,101877.94
2022-08-29T01:38:43.841Z,101890.28
2022-08-29T01:41:14.167Z,101887.63
2022-08-29T01:43:48.799Z,101899.09
2022-08-29T01:46:23.369Z,101904.41
2022-08-29T01:48:52.314Z,101906.06
2022-08-29T01:51:20.973Z,101893.78
2022-08-29T01:53:49.824Z,101902.63
2022-08-29T01:56:24.415Z,101913.31
2022-08-29T01:58:56.861Z,101902.69
2022-08-29T02:01:27.828Z,101890.34
2022-08-29T02:03:56.135Z,101911.50
2022-08-29T02:06:24.316Z,101907.06
2022-08-29T02:08:52.657Z,101912.31
2022-08-29T02:11:23.298Z,101893.88
2022-08-29T02:13:55.513Z,101882.47
2022-08-29T02:16:24.665Z,101902.72
2022-08-29T02:18:53.186Z,101931.03
2022-08-29T02:21:25.680Z,101922.22
2022-08-29T02:23:57.680Z,101906.28
2022-08-29T02:26:28.024Z,101923.13
2022-08-29T02:28:57.524Z,101931.94
2022-08-29T02:31:26.675Z,101938.13
2022-08-29T02:33:55.617Z,101931.03
2022-08-29T02:36:24.747Z,101927.53
2022-08-29T02:38:54.385Z,101939.03
2022-08-29T02:41:22.764Z,101925.81
2022-08-29T02:43:52.232Z,101932.88
2022-08-29T02:46:21.314Z,101940.03
2022-08-29T02:48:54.109Z,101936.44
2022-08-29T02:51:31.875Z,101943.56
2022-08-29T02:54:01.031Z,101939.16
2022-08-29T02:56:29.456Z,101948.88
2022-08-29T02:58:59.936Z,101939.16
2022-08-29T03:01:29.012Z,101949.75
2022-08-29T03:03:57.132Z,101931.22
2022-08-29T03:06:25.398Z,101943.63
2022-08-29T03:08:54.211Z,101946.25
2022-08-29T03:11:23.400Z,101935.69
2022-08-29T03:13:51.923Z,101952.44
2022-08-29T03:16:28.060Z,101954.22
2022-08-29T03:18:56.932Z,101954.25
2022-08-29T03:21:27.279Z,101963.06
2022-08-29T03:23:57.183Z,101961.31
2022-08-29T03:26:25.803Z,101956.03
2022-08-29T03:28:54.276Z,101966.59
2022-08-29T03:31:22.921Z,101970.09
2022-08-29T03:33:52.614Z,101969.28
2022-08-29T03:36:20.701Z,101958.69
2022-08-29T03:38:49.663Z,101977.22
2022-08-29T03:41:22.366Z,101973.69
2022-08-29T03:43:50.602Z,101966.63
2022-08-29T03:46:18.994Z,101971.03
2022-08-29T03:48:47.164Z,101976.34
2022-08-29T03:51:17.326Z,101972.78
2022-08-29T03:53:46.003Z,101986.06
2022-08-29T03:56:18.602Z,101983.41
2022-08-29T03:58:52.556Z,101987.81
2022-08-29T04:01:22.904Z,101986.94
2022-08-29T04:03:51.780Z,101999.28
2022-08-29T04:06:22.548Z,102001.91
2022-08-29T04:08:51.754Z,101994.84
2022-08-29T04:11:22.124Z,101984.25
2022-08-29T04:13:50.223Z,101996.59
2022-08-29T04:16:20.907Z,102011.63
2022-08-29T04:18:49.313Z,102007.19
2022-08-29T04:21:18.708Z,102009.00
2022-08-29T04:23:48.334Z,101994.91
2022-08-29T04:29:06.738Z,102028.44
2022-08-29T04:31:35.320Z,102028.41
2022-08-29T04:34:03.494Z,102033.72
2022-08-29T04:36:31.683Z,102033.72
2022-08-29T04:39:01.410Z,102017.81
2022-08-29T04:41:29.623Z,102037.25
2022-08-29T04:43:57.768Z,102042.56
2022-08-29T04:46:26.111Z,102035.47
2022-08-29T04:48:55.330Z,102037.28
2022-08-29T04:51:24.473Z,102041.69
2022-08-29T04:53:53.765Z,102040.78
2022-08-29T04:56:23.922Z,102053.16
2022-08-29T04:58:52.230Z,102045.19
2022-08-29T05:01:23.017Z,102039.03
2022-08-29T05:03:53.540Z,102046.09
2022-08-29T05:06:23.656Z,102043.41
2022-08-29T05:08:58.816Z,102051.38
2022-08-29T05:11:31.507Z,102049.59
2022-08-29T05:14:01.120Z,102046.09
2022-08-29T05:16:31.067Z,102011.56
2022-08-29T05:19:00.790Z,102052.22
2022-08-29T05:21:35.285Z,102054.91
2022-08-29T05:24:05.634Z,102051.38
2022-08-29T05:26:37.813Z,102056.66
2022-08-29T05:29:08.827Z,102062.84
2022-08-29T05:31:38.012Z,102060.22
2022-08-29T05:34:11.210Z,102053.13
2022-08-29T05:36:55.178Z,102059.31
2022-08-29T05:39:23.255Z,102052.25
2022-08-29T05:41:55.956Z,102063.72
2022-08-29T05:44:24.272Z,102069.03
2022-08-29T05:46:52.410Z,102074.34
2022-08-29T05:49:21.099Z,102072.56
2022-08-29T05:51:49.506Z,102075.22
2022-08-29T05:54:17.676Z,102083.16
2022-08-29T05:56:46.345Z,102085.81
2022-08-29T05:59:17.813Z,102083.16
2022-08-29T06:01:47.415Z,102081.41
2022-08-29T06:04:15.674Z,102077.84
2022-08-29T06:06:44.046Z,102060.19
2022-08-29T06:09:13.451Z,102072.56
2022-08-29T06:11:41.788Z,102075.22
2022-08-29T06:14:10.000Z,102089.34
2022-08-29T06:16:39.725Z,102092.00
2022-08-29T06:19:08.007Z,102097.28
2022-08-29T06:21:38.604Z,102090.19
2022-08-29T06:24:07.856Z,102095.47
2022-08-29T06:26:36.694Z,102094.56
2022-08-29T06:29:07.046Z,102077.84
2022-08-29T06:31:35.614Z,102065.47
2022-08-29T06:34:10.045Z,102092.84
2022-08-29T06:36:39.185Z,102091.06
2022-08-29T06:39:10.423Z,102097.25
2022-08-29T06:41:40.474Z,102085.75
2022-08-29T06:44:09.491Z,102073.41
2022-08-29T06:46:39.924Z,102093.69
2022-08-29T06:49:13.666Z,102084.84
2022-08-29T06:51:44.527Z,102084.81
2022-08-29T06:54:14.259Z,102065.38
2022-08-29T06:56:42.659Z,102091.84
2022-08-29T06:59:11.081Z,102063.66
2022-08-29T07:01:41.080Z,102083.03
2022-08-29T07:04:14.864Z,102097.16
2022-08-29T07:06:45.328Z,102107.75
2022-08-29T07:09:14.723Z,102102.41
2022-08-29T07:11:44.042Z,102103.28
2022-08-29T07:14:13.310Z,102098.84
2022-08-29T07:16:42.252Z,102092.63
2022-08-29T07:19:11.566Z,102089.97
2022-08-29T07:21:41.296Z,102095.22
2022-08-29T07:24:09.877Z,102075.78
2022-08-29T07:26:42.645Z,102089.00
2022-08-29T07:29:13.200Z,102085.41
2022-08-29T07:31:41.661Z,102093.31
2022-08-29T07:34:10.322Z,102091.56
2022-08-29T07:36:38.578Z,102091.63
2022-08-29T07:39:13.054Z,102091.56
2022-08-29T07:41:43.476Z,102087.94
2022-08-29T07:44:12.348Z,102093.25
2022-08-29T07:46:40.880Z,102087.94
2022-08-29T07:49:09.849Z,102098.47
2022-08-29T07:51:38.083Z,102107.34
2022-08-29T07:54:17.058Z,102106.41
2022-08-29T07:56:45.301Z,102101.91
2022-08-29T07:59:14.514Z,102097.53
2022-08-29T08:01:43.036Z,102110.78
2022-08-29T08:04:11.721Z,102095.72
2022-08-29T08:06:42.068Z,102104.56
2022-08-29T08:09:12.142Z,102121.28
2022-08-29T08:11:41.930Z,102135.41
2022-08-29T08:14:11.206Z,102127.31
2022-08-29T08:16:44.328Z,102128.31
2022-08-29T08:19:13.594Z,102114.06
2022-08-29T08:21:49.411Z,102105.25
2022-08-29T08:24:19.826Z,102119.31
2022-08-29T08:26:49.749Z,102124.00
2022-08-29T08:29:18.027Z,102125.84
2022-08-29T08:31:47.539Z,102112.06
2022-08-29T08:34:15.904Z,102119.06
2022-08-29T08:36:45.918Z,102111.56
2022-08-29T08:39:15.343Z,102128.88
2022-08-29T08:41:53.796Z,102125.38
2022-08-29T08:44:48.836Z,102122.81
2022-08-29T08:47:23.591Z,102130.75
2022-08-29T08:49:56.651Z,102121.72
2022-08-29T08:52:29.440Z,102096.84
2022-08-29T08:55:03.068Z,102119.75
2022-08-29T08:57:41.041Z,102124.94
2022-08-29T09:00:11.766Z,102121.47
2022-08-29T09:02:58.926Z,102121.66
2022-08-29T09:05:39.831Z,102135.59
2022-08-29T09:08:18.244Z,102114.84
2022-08-29T09:10:58.944Z,102109.50
2022-08-29T09:13:38.854Z,102131.47
2022-08-29T09:16:14.468Z,102128.25
2022-08-29T09:18:52.810Z,102131.00
2022-08-29T09:21:41.758Z,102109.78
2022-08-29T09:24:17.325Z,102125.53
2022-08-29T09:26:45.551Z,102128.88
2022-08-29T09:29:21.312Z,102139.06
2022-08-29T09:32:10.192Z,102111.88
2022-08-29T09:35:06.927Z,102119.66
2022-08-29T09:37:35.054Z,102127.28
2022-08-29T09:40:10.204Z,102137.84
2022-08-29T09:42:41.724Z,102130.59
2022-08-29T09:45:25.317Z,102143.91
2022-08-29T09:48:10.124Z,102142.81
2022-08-29T09:50:38.577Z,102142.44
2022-08-29T09:53:10.056Z,102149.84
2022-08-29T09:55:53.838Z,102148.19
2022-08-29T09:58:31.110Z,102146.44
2022-08-29T10:01:04.426Z,102116.50
2022-08-29T10:03:39.665Z,102151.06
2022-08-29T10:06:16.955Z,102145.03
2022-08-29T10:08:58.035Z,102162.63
2022-08-29T10:11:31.171Z,102150.25
2022-08-29T10:14:03.501Z,102157.28
2022-08-29T10:16:41.717Z,102150.06
2022-08-29T10:19:14.264Z,102116.50
2022-08-29T10:21:51.227Z,102147.56
2022-08-29T10:24:39.029Z,102144.75
2022-08-29T10:27:17.633Z,102136.91
2022-08-29T10:30:03.104Z,102156.31
2022-08-29T10:32:46.481Z,102161.41
2022-08-29T10:35:20.773Z,102146.63
2022-08-29T10:37:57.745Z,102172.50
2022-08-29T10:40:31.591Z,102163.81
2022-08-29T10:43:26.262Z,102165.69
2022-08-29T10:46:06.062Z,102161.25
2022-08-29T10:48:39.313Z,102141.81
2022-08-29T10:51:20.499Z,102141.66
2022-08-29T10:53:53.960Z,102153.94
2022-08-29T10:56:28.739Z,102159.13
2022-08-29T10:59:09.142Z,102161.97
2022-08-29T11:01:43.391Z,102154.03
2022-08-29T11:04:20.296Z,102164.16
2022-08-29T11:06:56.713Z,102145.69
2022-08-29T11:09:32.601Z,102169.25
2022-08-29T11:12:12.506Z,102165.84
2022-08-29T11:14:50.336Z,102164.00
2022-08-29T11:17:20.482Z,102168.44
2022-08-29T11:19:59.237Z,102176.28
2022-08-29T11:22:32.723Z,102168.41
2022-08-29T11:25:09.617Z,102177.44
2022-08-29T11:27:49.261Z,102172.00
2022-08-29T11:30:24.978Z,102170.13
2022-08-29T11:33:06.476Z,102177.25
2022-08-29T11:35:46.626Z,102169.91
2022-08-29T11:39:00.559Z,102181.69
2022-08-29T11:41:31.093Z,102149.00
2022-08-29T11:44:10.689Z,102179.56
2022-08-29T11:46:43.179Z,102194.66
2022-08-29T11:49:25.487Z,102180.47
2022-08-29T11:51:56.833Z,102169.69
2022-08-29T11:54:54.956Z,102187.44
2022-08-29T11:57:47.130Z,102169.78
2022-08-29T12:00:41.239Z,102170.00
2022-08-29T12:03:55.044Z,102182.16
2022-08-29T12:06:26.163Z,102180.50
2022-08-29T12:09:05.206Z,102175.22
2022-08-29T12:12:08.851Z,102180.34
2022-08-29T12:14:39.223Z,102180.94
2022-08-29T12:17:10.571Z,102165.78
2022-08-29T12:19:54.288Z,102179.88
2022-08-29T12:22:59.516Z,102173.91
2022-08-29T12:25:46.013Z,102183.53
2022-08-29T12:28:37.477Z,102169.34
2022-08-29T12:31:11.373Z,102170.94
2022-08-29T12:33:50.635Z,102181.47
2022-08-29T12:36:33.642Z,102171.66
2022-08-29T12:39:24.664Z,102169.84
2022-08-29T12:42:25.880Z,102167.16
2022-08-29T12:45:01.217Z,102175.97
2022-08-29T12:47:34.725Z,102175.00
2022-08-29T12:50:08.207Z,102157.06
2022-08-29T12:52:39.185Z,102177.56
2022-08-29T12:55:23.070Z,102172.22
2022-08-29T12:57:59.354Z,102163.41
2022-08-29T13:00:31.262Z,102145.63
2022-08-29T13:03:04.039Z,102142.16
2022-08-29T13:05:34.887Z,102161.28
2022-08-29T13:08:11.031Z,102168.13
2022-08-29T13:10:53.480Z,102161.53
2022-08-29T13:13:25.275Z,102165.19
2022-08-29T13:15:55.389Z,102150.66
2022-08-29T13:18:24.500Z,102149.03
2022-08-29T13:21:12.271Z,102148.88
2022-08-29T13:23:46.194Z,102158.38
2022-08-29T13:26:23.673Z,102145.03
2022-08-29T13:28:55.502Z,102145.31
2022-08-29T13:31:27.862Z,102153.91
2022-08-29T13:34:21.135Z,102153.25
2022-08-29T13:37:01.827Z,102139.84
2022-08-29T13:39:44.081Z,102146.88
2022-08-29T13:42:26.453Z,102156.81
2022-08-29T13:45:11.092Z,102143.63
2022-08-29T13:48:12.102Z,102140.00
2022-08-29T13:50:41.007Z,102145.19
2022-08-29T13:53:09.453Z,102150.53
2022-08-29T13:55:38.054Z,102149.75
2022-08-29T13:58:06.387Z,102150.66
2022-08-29T14:00:35.985Z,102148.69
2022-08-29T14:03:09.620Z,102147.00
2022-08-29T14:05:38.676Z,102138.75
2022-08-29T14:08:10.296Z,102137.81
2022-08-29T14:10:42.147Z,102134.22
2022-08-29T14:13:10.252Z,102148.25
2022-08-29T14:15:40.772Z,102145.09
2022-08-29T14:18:10.569Z,102139.63
2022-08-29T14:20:39.154Z,102136.25
2022-08-29T14:23:07.760Z,102143.16
2022-08-29T14:25:35.951Z,102157.44
2022-08-29T14:28:04.443Z,102164.53
2022-08-29T14:30:32.782Z,102152.97
2022-08-29T14:33:02.344Z,102162.84
2022-08-29T14:35:31.475Z,102151.38
2022-08-29T14:38:02.198Z,102152.16
2022-08-29T14:40:32.406Z,102147.69
2022-08-29T14:43:02.221Z,102148.69
2022-08-29T14:45:31.974Z,102149.91
2022-08-29T14:48:01.906Z,102158.84
2022-08-29T14:50:30.525Z,102159.56
2022-08-29T14:52:58.915Z,102105.69
2022-08-29T14:55:27.709Z,102141.72
2022-08-29T14:57:56.076Z,102129.28
2022-08-29T15:00:26.710Z,102150.44
2022-08-29T15:02:55.268Z,102120.28
2022-08-29T15:05:25.503Z,102140.75
2022-08-29T15:07:53.972Z,102114.34
2022-08-29T15:10:25.845Z,102136.81
2022-08-29T15:12:54.483Z,102128.59
2022-08-29T15:15:29.343Z,102125.81
2022-08-29T15:17:58.474Z,102128.59
2022-08-29T15:20:38.215Z,102118.97
2022-08-29T15:23:08.210Z,102127.84
2022-08-29T15:25:37.007Z,102133.03
2022-08-29T15:28:05.747Z,102131.09
2022-08-29T15:30:34.588Z,102120.78
2022-08-29T15:33:03.477Z,102145.75
2022-08-29T15:35:33.383Z,102133.34
2022-08-29T15:38:01.728Z,102116.91
2022-08-29T15:40:30.161Z,102119.44
2022-08-29T15:42:58.798Z,102132.69
2022-08-29T15:45:27.436Z,102121.28
2022-08-29T15:47:55.686Z,102114.09
2022-08-29T15:50:26.452Z,102138.97
2022-08-29T15:52:56.826Z,102138.88
2022-08-29T15:55:26.298Z,102142.53
2022-08-29T15:57:54.501Z,102144.28
2022-08-29T16:00:29.634Z,102147.00
2022-08-29T16:03:03.674Z,102146.34
2022-08-29T16:05:33.463Z,102134.81
2022-08-29T16:08:03.765Z,102110.03
2022-08-29T16:10:32.824Z,102143.00
2022-08-29T16:13:01.751Z,102137.53
2022-08-29T16:15:31.440Z,102151.72
2022-08-29T16:18:00.444Z,102142.88
2022-08-29T16:20:28.990Z,102144.75
2022-08-29T16:22:58.009Z,102146.59
2022-08-29T16:25:32.397Z,102148.41
2022-08-29T16:28:01.435Z,102146.66
2022-08-29T16:30:31.623Z,102140.47
2022-08-29T16:33:00.174Z,102143.16
2022-08-29T16:35:28.514Z,102146.84
2022-08-29T16:38:02.970Z,102144.31
2022-08-29T16:40:33.737Z,102132.91
2022-08-29T16:43:02.857Z,102148.78
2022-08-29T16:45:31.302Z,102146.13
2022-08-29T16:47:59.808Z,102151.41
2022-08-29T16:50:28.722Z,102141.81
2022-08-29T16:52:56.973Z,102150.66
2022-08-29T16:55:29.476Z,102151.63
2022-08-29T16:58:17.488Z,102152.47
2022-08-29T17:00:46.536Z,102156.09
2022-08-29T17:03:19.468Z,102162.47
2022-08-29T17:05:49.620Z,102159.81
2022-08-29T17:08:17.078Z,102143.97
2022-08-29T17:10:44.198Z,102154.56
2022-08-29T17:13:13.359Z,102166.94
2022-08-29T17:15:40.477Z,102168.69
2022-08-29T17:18:09.211Z,102171.34
2022-08-29T17:20:38.125Z,102170.56
2022-08-29T17:23:10.127Z,102175.97
2022-08-29T17:25:39.409Z,102174.38
2022-08-29T17:28:17.721Z,102179.66
2022-08-29T17:30:49.080Z,102178.72
2022-08-29T17:33:17.919Z,102174.28
2022-08-29T17:35:46.069Z,102185.00
2022-08-29T17:38:15.949Z,102178.84
2022-08-29T17:40:44.691Z,102183.28
2022-08-29T17:43:14.152Z,102189.56
2022-08-29T17:45:42.744Z,102190.53
2022-08-29T17:48:12.497Z,102189.75
2022-08-29T17:50:42.087Z,102186.97
2022-08-29T17:53:10.561Z,102194.22
2022-08-29T17:55:42.099Z,102197.78
2022-08-29T17:58:10.454Z,102201.41
2022-08-29T18:00:39.124Z,102204.13
2022-08-29T18:03:09.869Z,102206.75
2022-08-29T18:05:41.399Z,102206.03
2022-08-29T18:08:09.562Z,102194.53
2022-08-29T18:10:38.649Z,102213.09
2022-08-29T18:13:07.164Z,102206.94
2022-08-29T18:15:35.720Z,102200.72
2022-08-29T18:18:05.289Z,102206.91
2022-08-29T18:20:33.851Z,102204.31
2022-08-29T18:23:04.580Z,102205.94
2022-08-29T18:25:32.750Z,102210.53
2022-08-29T18:28:01.123Z,102217.72
2022-08-29T18:30:29.336Z,102215.09
2022-08-29T18:32:57.567Z,102216.88
2022-08-29T18:35:26.016Z,102218.69
2022-08-29T18:37:54.102Z,102224.91
2022-08-29T18:40:24.705Z,102230.25
2022-08-29T18:42:53.469Z,102230.16
2022-08-29T18:45:21.515Z,102232.94
2022-08-29T18:47:49.765Z,102228.56
2022-08-29T18:50:36.778Z,102243.56
2022-08-29T18:53:08.607Z,102232.06
2022-08-29T18:55:39.337Z,102236.53
2022-08-29T18:58:08.498Z,102248.06
2022-08-29T19:00:40.315Z,102249.94
2022-08-29T19:03:08.780Z,102248.16
2022-08-29T19:05:39.209Z,102239.34
2022-08-29T19:08:10.483Z,102241.13
2022-08-29T19:10:40.016Z,102247.22
2022-08-29T19:13:09.288Z,102229.63
2022-08-29T19:15:41.371Z,102249.13
2022-08-29T19:18:11.121Z,102213.81
2022-08-29T19:21:00.449Z,102253.59
2022-08-29T19:23:28.685Z,102255.41
2022-08-29T19:25:58.199Z,102234.28
2022-08-29T19:28:26.974Z,102257.28
2022-08-29T19:30:55.535Z,102259.06
2022-08-29T19:33:24.789Z,102237.81
2022-08-29T19:35:53.951Z,102254.63
2022-08-29T19:38:23.939Z,102267.09
2022-08-29T19:40:57.154Z,102263.56
2022-08-29T19:43:28.402Z,102266.22
2022-08-29T19:45:57.748Z,102269.75
2022-08-29T19:48:28.149Z,102271.59
2022-08-29T19:50:57.017Z,102276.94
2022-08-29T19:53:27.185Z,102256.66
2022-08-29T19:55:56.825Z,102278.72
2022-08-29T19:58:31.511Z,102247.00
2022-08-29T20:01:02.004Z,102279.59
2022-08-29T20:03:30.238Z,102284.13
2022-08-29T20:05:59.651Z,102288.59
2022-08-29T20:08:29.231Z,102278.88
2022-08-29T20:10:59.629Z,102288.59
2022-08-29T20:13:34.873Z,102287.75
2022-08-29T20:16:04.480Z,102284.16
2022-08-29T20:18:33.160Z,102284.19
2022-08-29T20:21:01.411Z,102280.66
2022-08-29T20:23:30.415Z,102278.94
2022-08-29T20:26:00.068Z,102282.53
2022-08-29T20:28:30.631Z,102288.72
2022-08-29T20:30:59.079Z,102286.13
2022-08-29T20:33:27.668Z,102289.72
2022-08-29T20:36:13.740Z,102294.13
2022-08-29T20:38:42.091Z,102300.38
2022-08-29T20:41:10.253Z,102299.50
2022-08-29T20:43:39.845Z,102288.91
2022-08-29T20:46:09.782Z,102294.25
2022-08-29T20:48:38.889Z,102296.91
2022-08-29T20:51:09.432Z,102289.81
2022-08-29T20:53:39.123Z,102289.81
2022-08-29T20:56:08.806Z,102293.44
2022-08-29T20:58:36.960Z,102309.34
2022-08-29T21:01:07.040Z,102305.81
2022-08-29T21:03:52.893Z,102307.59
2022-08-29T21:06:21.998Z,102307.63
2022-08-29T21:08:50.176Z,102311.16
2022-08-29T21:11:18.345Z,102308.50
2022-08-29T21:13:50.050Z,102320.03
2022-08-29T21:16:22.288Z,102312.06
2022-08-29T21:18:52.536Z,102318.25
2022-08-29T21:21:24.208Z,102321.81
2022-08-29T21:23:53.559Z,102321.81
2022-08-29T21:26:21.662Z,102324.47
2022-08-29T21:28:49.797Z,102323.56
2022-08-29T21:31:18.618Z,102320.03
2022-08-29T21:33:48.802Z,102327.09
2022-08-29T21:36:19.991Z,102329.78
2022-08-29T21:38:49.239Z,102335.94
2022-08-29T21:41:17.408Z,102340.38
2022-08-29T21:43:45.606Z,102332.44
2022-08-29T21:46:18.435Z,102329.78
2022-08-29T21:48:48.785Z,102330.66
2022-08-29T21:51:18.864Z,102326.25
2022-08-29T21:53:47.519Z,102334.19
2022-08-29T21:56:16.191Z,102325.34
2022-08-29T21:58:46.872Z,102330.66
2022-08-29T22:01:14.919Z,102321.84
2022-08-29T22:03:43.263Z,102326.25
2022-08-29T22:06:13.005Z,102330.66
2022-08-29T22:08:41.047Z,102323.59
2022-08-29T22:11:15.463Z,102327.06
2022-08-29T22:13:43.958Z,102326.25
2022-08-29T22:16:29.889Z,102323.53
2022-08-29T22:19:01.304Z,102316.44
2022-08-29T22:21:33.939Z,102327.03
2022-08-29T22:24:03.530Z,102332.34
2022-08-29T22:26:31.849Z,102328.81
2022-08-29T22:29:00.393Z,102334.09
2022-08-29T22:31:28.800Z,102332.31
2022-08-29T22:33:56.935Z,102339.38
2022-08-29T22:36:25.166Z,102329.69
2022-08-29T22:38:56.508Z,102337.59
2022-08-29T22:41:25.757Z,102326.97
2022-08-29T22:44:25.463Z,102303.97
2022-08-29T22:46:45.959Z,102342.91
2022-08-29T22:49:14.533Z,102337.59
2022-08-29T22:51:42.515Z,102348.19
2022-08-29T22:54:29.558Z,102347.25
2022-08-29T22:56:58.097Z,102342.81
2022-08-29T22:59:26.196Z,102344.56
2022-08-29T23:01:54.715Z,102347.25
2022-08-29T23:04:24.167Z,102356.06
2022-08-29T23:06:52.318Z,102353.41
2022-08-29T23:09:22.110Z,102355.22
2022-08-29T23:11:50.697Z,102353.38
2022-08-29T23:14:20.551Z,102351.59
2022-08-29T23:16:49.724Z,102352.47
2022-08-29T23:19:18.436Z,102348.03
2022-08-29T23:21:46.496Z,102343.66
2022-08-29T23:24:14.765Z,102353.34
2022-08-29T23:26:44.392Z,102351.53
2022-08-29T23:29:12.512Z,102359.44
2022-08-29T23:31:41.157Z,102335.56
2022-08-29T23:34:09.735Z,102355.97
2022-08-29T23:36:37.897Z,102358.59
2022-08-29T23:39:06.438Z,102359.38
2022-08-29T23:41:35.362Z,102369.09
2022-08-29T23:44:05.747Z,102369.03
2022-08-29T23:46:34.276Z,102370.81
2022-08-29T23:49:02.443Z,102373.47
2022-08-29T23:51:30.529Z,102359.28
2022-08-29T23:53:58.923Z,102358.38
2022-08-29T23:56:27.237Z,102369.03
2022-08-29T23:58:56.927Z,102362.75
